sensor_id;sensor_type;location;lat;lon;timestamp;pressure;altitude;pressure_sealevel;temperature;humidity
7918;BME280;4004;42.624;23.386;2023-05-29T00:00:56;93949.16;;;13.46;100.00
7918;BME280;4004;42.624;23.386;2023-05-29T00:03:22;93960.31;;;13.41;100.00
7918;BME280;4004;42.624;23.386;2023-05-29T00:05:50;93951.81;;;13.42;100.00
7918;BME280;4004;42.624;23.386;2023-05-29T00:08:17;93946.06;;;13.44;100.00
7918;BME280;4004;42.624;23.386;2023-05-29T00:10:44;93946.47;;;13.46;100.00
7918;BME280;4004;42.624;23.386;2023-05-29T00:13:11;93947.94;;;13.36;100.00
7918;BME280;4004;42.624;23.386;2023-05-29T00:15:38;93950.25;;;13.34;100.00
7918;BME280;4004;42.624;23.386;2023-05-29T00:18:04;93952.16;;;13.30;100.00
7918;BME280;4004;42.624;23.386;2023-05-29T00:20:32;93943.53;;;13.17;100.00
7918;BME280;4004;42.624;23.386;2023-05-29T00:23:00;93957.50;;;13.26;100.00
7918;BME280;4004;42.624;23.386;2023-05-29T00:25:30;93957.84;;;13.25;100.00
7918;BME280;4004;42.624;23.386;2023-05-29T00:27:56;93960.63;;;13.29;100.00
7918;BME280;4004;42.624;23.386;2023-05-29T00:30:23;93958.69;;;13.29;100.00
7918;BME280;4004;42.624;23.386;2023-05-29T00:32:50;93947.06;;;13.21;100.00
7918;BME280;4004;42.624;23.386;2023-05-29T00:35:17;93948.19;;;13.17;100.00
7918;BME280;4004;42.624;23.386;2023-05-29T00:37:44;93954.38;;;13.21;100.00
7918;BME280;4004;42.624;23.386;2023-05-29T00:40:12;93953.97;;;13.19;100.00
7918;BME280;4004;42.624;23.386;2023-05-29T00:42:39;93956.34;;;13.27;100.00
7918;BME280;4004;42.624;23.386;2023-05-29T00:45:06;93954.84;;;13.34;100.00
7918;BME280;4004;42.624;23.386;2023-05-29T00:47:33;93954.13;;;13.37;100.00
7918;BME280;4004;42.624;23.386;2023-05-29T00:50:01;93950.25;;;13.38;100.00
7918;BME280;4004;42.624;23.386;2023-05-29T00:52:29;93948.63;;;13.26;100.00
7918;BME280;4004;42.624;23.386;2023-05-29T00:54:56;93950.47;;;13.15;100.00
7918;BME280;4004;42.624;23.386;2023-05-29T00:57:27;93941.63;;;13.14;100.00
7918;BME280;4004;42.624;23.386;2023-05-29T00:59:55;93937.75;;;13.12;100.00
7918;BME280;4004;42.624;23.386;2023-05-29T01:02:22;93934.59;;;13.06;100.00
7918;BME280;4004;42.624;23.386;2023-05-29T01:04:49;93935.38;;;13.03;100.00
7918;BME280;4004;42.624;23.386;2023-05-29T01:07:20;93935.28;;;12.96;100.00
7918;BME280;4004;42.624;23.386;2023-05-29T01:09:46;93928.34;;;12.95;100.00
7918;BME280;4004;42.624;23.386;2023-05-29T01:12:32;93932.63;;;12.99;100.00
7918;BME280;4004;42.624;23.386;2023-05-29T01:15:16;93940.72;;;12.99;100.00
7918;BME280;4004;42.624;23.386;2023-05-29T01:17:53;93944.50;;;12.91;100.00
7918;BME280;4004;42.624;23.386;2023-05-29T01:20:28;93947.88;;;12.77;100.00
7918;BME280;4004;42.624;23.386;2023-05-29T01:23:06;93941.13;;;12.53;100.00
7918;BME280;4004;42.624;23.386;2023-05-29T01:25:50;93942.75;;;12.61;100.00
7918;BME280;4004;42.624;23.386;2023-05-29T01:28:21;93943.16;;;12.67;100.00
7918;BME280;4004;42.624;23.386;2023-05-29T01:30:53;93937.69;;;12.60;100.00
7918;BME280;4004;42.624;23.386;2023-05-29T01:33:20;93936.56;;;12.61;100.00
7918;BME280;4004;42.624;23.386;2023-05-29T01:35:47;93935.00;;;12.60;100.00
7918;BME280;4004;42.624;23.386;2023-05-29T01:38:14;93932.75;;;12.65;100.00
7918;BME280;4004;42.624;23.386;2023-05-29T01:40:40;93943.25;;;12.74;100.00
7918;BME280;4004;42.624;23.386;2023-05-29T01:43:07;93945.94;;;12.74;100.00
7918;BME280;4004;42.624;23.386;2023-05-29T01:45:36;93934.34;;;12.70;100.00
7918;BME280;4004;42.624;23.386;2023-05-29T01:48:04;93938.97;;;12.73;100.00
7918;BME280;4004;42.624;23.386;2023-05-29T01:50:31;93935.16;;;12.78;100.00
7918;BME280;4004;42.624;23.386;2023-05-29T01:52:57;93934.38;;;12.77;100.00
7918;BME280;4004;42.624;23.386;2023-05-29T01:55:24;93933.63;;;12.80;100.00
7918;BME280;4004;42.624;23.386;2023-05-29T01:57:51;93926.75;;;12.83;100.00
7918;BME280;4004;42.624;23.386;2023-05-29T02:00:18;93932.53;;;12.89;100.00
7918;BME280;4004;42.624;23.386;2023-05-29T02:02:47;93931.81;;;12.92;100.00
7918;BME280;4004;42.624;23.386;2023-05-29T02:05:13;93926.84;;;12.97;100.00
7918;BME280;4004;42.624;23.386;2023-05-29T02:07:40;93932.66;;;13.03;100.00
7918;BME280;4004;42.624;23.386;2023-05-29T02:10:07;93929.97;;;13.03;100.00
7918;BME280;4004;42.624;23.386;2023-05-29T02:12:34;93934.63;;;13.10;100.00
7918;BME280;4004;42.624;23.386;2023-05-29T02:15:01;93930.38;;;13.05;100.00
7918;BME280;4004;42.624;23.386;2023-05-29T02:17:27;93928.41;;;12.98;100.00
7918;BME280;4004;42.624;23.386;2023-05-29T02:19:55;93926.47;;;12.99;100.00
7918;BME280;4004;42.624;23.386;2023-05-29T02:22:22;93926.06;;;13.00;100.00
7918;BME280;4004;42.624;23.386;2023-05-29T02:24:49;93927.69;;;13.05;100.00
7918;BME280;4004;42.624;23.386;2023-05-29T02:27:15;93926.13;;;13.07;100.00
7918;BME280;4004;42.624;23.386;2023-05-29T02:29:42;93940.81;;;13.10;100.00
7918;BME280;4004;42.624;23.386;2023-05-29T02:32:09;93934.28;;;13.15;100.00
7918;BME280;4004;42.624;23.386;2023-05-29T02:34:36;93930.09;;;13.21;100.00
7918;BME280;4004;42.624;23.386;2023-05-29T02:37:04;93929.31;;;13.24;100.00
7918;BME280;4004;42.624;23.386;2023-05-29T02:39:31;93931.25;;;13.23;100.00
7918;BME280;4004;42.624;23.386;2023-05-29T02:41:58;93931.97;;;13.17;100.00
7918;BME280;4004;42.624;23.386;2023-05-29T02:44:24;93942.44;;;13.25;100.00
7918;BME280;4004;42.624;23.386;2023-05-29T02:46:51;93937.81;;;13.26;100.00
7918;BME280;4004;42.624;23.386;2023-05-29T02:49:18;93942.13;;;13.31;100.00
7918;BME280;4004;42.624;23.386;2023-05-29T02:51:44;93947.91;;;13.33;100.00
7918;BME280;4004;42.624;23.386;2023-05-29T02:54:12;93940.25;;;13.42;100.00
7918;BME280;4004;42.624;23.386;2023-05-29T02:56:39;93944.50;;;13.39;100.00
7918;BME280;4004;42.624;23.386;2023-05-29T02:59:06;93935.88;;;13.26;100.00
7918;BME280;4004;42.624;23.386;2023-05-29T03:01:33;93941.72;;;13.29;100.00
7918;BME280;4004;42.624;23.386;2023-05-29T03:03:59;93941.28;;;13.23;100.00
7918;BME280;4004;42.624;23.386;2023-05-29T03:06:26;93946.69;;;13.23;100.00
7918;BME280;4004;42.624;23.386;2023-05-29T03:08:53;93952.44;;;13.21;100.00
7918;BME280;4004;42.624;23.386;2023-05-29T03:11:21;93951.69;;;13.24;100.00
7918;BME280;4004;42.624;23.386;2023-05-29T03:13:48;93950.25;;;13.34;100.00
7918;BME280;4004;42.624;23.386;2023-05-29T03:16:15;93952.22;;;13.41;100.00
7918;BME280;4004;42.624;23.386;2023-05-29T03:18:42;93950.75;;;13.54;100.00
7918;BME280;4004;42.624;23.386;2023-05-29T03:21:09;93952.75;;;13.72;100.00
7918;BME280;4004;42.624;23.386;2023-05-29T03:23:36;93947.78;;;13.81;100.00
7918;BME280;4004;42.624;23.386;2023-05-29T03:26:02;93949.38;;;13.93;100.00
7918;BME280;4004;42.624;23.386;2023-05-29T03:28:30;93948.25;;;14.04;100.00
7918;BME280;4004;42.624;23.386;2023-05-29T03:30:57;93946.75;;;14.18;100.00
7918;BME280;4004;42.624;23.386;2023-05-29T03:33:24;93951.06;;;14.29;100.00
7918;BME280;4004;42.624;23.386;2023-05-29T03:35:51;93960.34;;;14.39;100.00
7918;BME280;4004;42.624;23.386;2023-05-29T03:38:17;93968.47;;;14.54;100.00
7918;BME280;4004;42.624;23.386;2023-05-29T03:40:44;93966.19;;;14.59;100.00
7918;BME280;4004;42.624;23.386;2023-05-29T03:43:11;93976.97;;;14.48;100.00
7918;BME280;4004;42.624;23.386;2023-05-29T03:45:39;93976.19;;;14.41;100.00
7918;BME280;4004;42.624;23.386;2023-05-29T03:48:06;93975.78;;;14.35;100.00
7918;BME280;4004;42.624;23.386;2023-05-29T03:50:32;93978.50;;;14.39;100.00
7918;BME280;4004;42.624;23.386;2023-05-29T03:52:59;93975.50;;;14.65;100.00
7918;BME280;4004;42.624;23.386;2023-05-29T03:55:26;93980.75;;;16.12;100.00
7918;BME280;4004;42.624;23.386;2023-05-29T03:57:53;93987.63;;;18.30;100.00
7918;BME280;4004;42.624;23.386;2023-05-29T04:00:20;93984.91;;;19.62;100.00
7918;BME280;4004;42.624;23.386;2023-05-29T04:02:49;94001.59;;;20.87;91.34
7918;BME280;4004;42.624;23.386;2023-05-29T04:05:16;94010.56;;;22.48;73.75
7918;BME280;4004;42.624;23.386;2023-05-29T04:07:43;94012.97;;;24.00;63.47
7918;BME280;4004;42.624;23.386;2023-05-29T04:10:10;94008.28;;;24.45;56.95
7918;BME280;4004;42.624;23.386;2023-05-29T04:12:37;94019.06;;;24.17;56.46
7918;BME280;4004;42.624;23.386;2023-05-29T04:15:05;94024.78;;;23.49;57.39
7918;BME280;4004;42.624;23.386;2023-05-29T04:17:32;94012.06;;;22.49;61.18
7918;BME280;4004;42.624;23.386;2023-05-29T04:20:00;94002.78;;;21.56;65.89
7918;BME280;4004;42.624;23.386;2023-05-29T04:22:33;94010.81;;;20.77;72.62
7918;BME280;4004;42.624;23.386;2023-05-29T04:25:00;94004.19;;;19.75;77.28
7918;BME280;4004;42.624;23.386;2023-05-29T04:27:29;93994.66;;;18.85;83.97
7918;BME280;4004;42.624;23.386;2023-05-29T04:29:57;94000.81;;;17.97;90.59
7918;BME280;4004;42.624;23.386;2023-05-29T04:32:24;93998.47;;;17.54;95.38
7918;BME280;4004;42.624;23.386;2023-05-29T04:34:51;94004.84;;;17.36;99.03
7918;BME280;4004;42.624;23.386;2023-05-29T04:37:19;93993.03;;;17.09;100.00
7918;BME280;4004;42.624;23.386;2023-05-29T04:39:55;94002.38;;;17.01;100.00
7918;BME280;4004;42.624;23.386;2023-05-29T04:42:22;93997.31;;;17.06;100.00
7918;BME280;4004;42.624;23.386;2023-05-29T04:44:50;94007.47;;;16.98;100.00
7918;BME280;4004;42.624;23.386;2023-05-29T04:47:18;94012.56;;;17.42;100.00
7918;BME280;4004;42.624;23.386;2023-05-29T04:49:44;94000.00;;;18.00;100.00
7918;BME280;4004;42.624;23.386;2023-05-29T04:52:15;94004.03;;;18.53;94.91
7918;BME280;4004;42.624;23.386;2023-05-29T04:54:43;94014.97;;;18.80;91.98
7918;BME280;4004;42.624;23.386;2023-05-29T04:57:10;94019.72;;;19.03;90.14
7918;BME280;4004;42.624;23.386;2023-05-29T04:59:37;94023.31;;;18.97;90.33
7918;BME280;4004;42.624;23.386;2023-05-29T05:02:04;94032.63;;;19.50;88.26
7918;BME280;4004;42.624;23.386;2023-05-29T05:04:31;94033.06;;;20.16;83.83
7918;BME280;4004;42.624;23.386;2023-05-29T05:06:57;94041.97;;;20.20;79.90
7918;BME280;4004;42.624;23.386;2023-05-29T05:09:24;94031.28;;;19.85;78.90
7918;BME280;4004;42.624;23.386;2023-05-29T05:11:53;94049.38;;;19.99;78.90
7918;BME280;4004;42.624;23.386;2023-05-29T05:14:20;94036.78;;;20.05;82.19
7918;BME280;4004;42.624;23.386;2023-05-29T05:16:47;94044.72;;;19.96;81.69
7918;BME280;4004;42.624;23.386;2023-05-29T05:19:13;94047.03;;;19.98;81.96
7918;BME280;4004;42.624;23.386;2023-05-29T05:21:40;94046.59;;;19.79;83.34
7918;BME280;4004;42.624;23.386;2023-05-29T05:24:07;94048.38;;;19.62;84.54
7918;BME280;4004;42.624;23.386;2023-05-29T05:26:33;94052.72;;;19.60;83.95
7918;BME280;4004;42.624;23.386;2023-05-29T05:29:01;94049.31;;;19.79;83.17
7918;BME280;4004;42.624;23.386;2023-05-29T05:31:28;94043.56;;;20.17;79.88
7918;BME280;4004;42.624;23.386;2023-05-29T05:33:55;94051.69;;;20.21;78.06
7918;BME280;4004;42.624;23.386;2023-05-29T05:36:21;94053.47;;;21.07;76.04
7918;BME280;4004;42.624;23.386;2023-05-29T05:38:48;94059.00;;;22.22;68.29
7918;BME280;4004;42.624;23.386;2023-05-29T05:41:15;94048.19;;;22.15;64.60
7918;BME280;4004;42.624;23.386;2023-05-29T05:43:42;94052.91;;;22.14;64.75
7918;BME280;4004;42.624;23.386;2023-05-29T05:46:10;94054.09;;;23.27;61.01
7918;BME280;4004;42.624;23.386;2023-05-29T05:48:37;94041.44;;;23.93;56.30
7918;BME280;4004;42.624;23.386;2023-05-29T05:51:03;94043.06;;;24.04;55.79
7918;BME280;4004;42.624;23.386;2023-05-29T05:53:30;94052.63;;;23.99;55.27
7918;BME280;4004;42.624;23.386;2023-05-29T05:55:57;94052.22;;;23.49;57.54
7918;BME280;4004;42.624;23.386;2023-05-29T05:58:23;94058.03;;;23.38;56.39
7918;BME280;4004;42.624;23.386;2023-05-29T06:00:50;94067.25;;;23.70;54.57
7918;BME280;4004;42.624;23.386;2023-05-29T06:03:19;94051.50;;;22.94;56.84
7918;BME280;4004;42.624;23.386;2023-05-29T06:05:45;94054.44;;;22.15;60.79
7918;BME280;4004;42.624;23.386;2023-05-29T06:08:12;94050.88;;;21.37;64.54
7918;BME280;4004;42.624;23.386;2023-05-29T06:10:40;94045.34;;;20.67;67.90
7918;BME280;4004;42.624;23.386;2023-05-29T06:13:07;94048.28;;;20.37;70.07
7918;BME280;4004;42.624;23.386;2023-05-29T06:15:34;94039.44;;;20.09;72.94
7918;BME280;4004;42.624;23.386;2023-05-29T06:18:01;94040.53;;;20.12;74.58
7918;BME280;4004;42.624;23.386;2023-05-29T06:20:29;94051.13;;;20.29;74.08
7918;BME280;4004;42.624;23.386;2023-05-29T06:22:56;94050.88;;;20.24;74.88
7918;BME280;4004;42.624;23.386;2023-05-29T06:25:23;94050.78;;;20.27;74.35
7918;BME280;4004;42.624;23.386;2023-05-29T06:27:58;94061.66;;;20.07;74.66
7918;BME280;4004;42.624;23.386;2023-05-29T06:30:24;94059.66;;;20.12;74.73
7918;BME280;4004;42.624;23.386;2023-05-29T06:32:51;94049.34;;;20.63;75.10
7918;BME280;4004;42.624;23.386;2023-05-29T06:35:18;94059.19;;;20.97;70.79
7918;BME280;4004;42.624;23.386;2023-05-29T06:37:46;94059.75;;;21.24;70.40
7918;BME280;4004;42.624;23.386;2023-05-29T06:40:13;94057.06;;;21.90;68.01
7918;BME280;4004;42.624;23.386;2023-05-29T06:42:41;94059.28;;;22.41;64.05
7918;BME280;4004;42.624;23.386;2023-05-29T06:45:10;94063.75;;;22.76;62.74
7918;BME280;4004;42.624;23.386;2023-05-29T06:50:06;94062.47;;;22.39;61.69
7918;BME280;4004;42.624;23.386;2023-05-29T06:52:33;94063.72;;;21.89;62.77
7918;BME280;4004;42.624;23.386;2023-05-29T06:55:01;94055.16;;;21.87;62.86
7918;BME280;4004;42.624;23.386;2023-05-29T06:57:28;94062.09;;;21.91;63.26
7918;BME280;4004;42.624;23.386;2023-05-29T06:59:54;94056.63;;;21.91;63.79
7918;BME280;4004;42.624;23.386;2023-05-29T07:02:21;94057.81;;;22.65;59.37
7918;BME280;4004;42.624;23.386;2023-05-29T07:04:48;94054.22;;;23.10;57.95
7918;BME280;4004;42.624;23.386;2023-05-29T07:07:16;94065.84;;;23.14;58.50
7918;BME280;4004;42.624;23.386;2023-05-29T07:09:42;94057.88;;;22.91;61.17
7918;BME280;4004;42.624;23.386;2023-05-29T07:12:10;94068.72;;;22.82;61.09
7918;BME280;4004;42.624;23.386;2023-05-29T07:14:37;94061.69;;;22.39;61.96
7918;BME280;4004;42.624;23.386;2023-05-29T07:17:04;94062.88;;;22.38;63.06
7918;BME280;4004;42.624;23.386;2023-05-29T07:19:31;94064.03;;;22.24;63.12
7918;BME280;4004;42.624;23.386;2023-05-29T07:21:59;94060.69;;;22.32;62.13
7918;BME280;4004;42.624;23.386;2023-05-29T07:24:26;94047.56;;;22.40;61.31
7918;BME280;4004;42.624;23.386;2023-05-29T07:26:53;94058.97;;;22.51;60.22
7918;BME280;4004;42.624;23.386;2023-05-29T07:29:22;94059.41;;;22.79;60.30
7918;BME280;4004;42.624;23.386;2023-05-29T07:31:49;94068.84;;;22.91;57.54
7918;BME280;4004;42.624;23.386;2023-05-29T07:34:15;94073.75;;;22.83;57.97
7918;BME280;4004;42.624;23.386;2023-05-29T07:36:57;94073.75;;;22.83;57.97
7918;BME280;4004;42.624;23.386;2023-05-29T07:39:25;94042.59;;;23.06;57.93
7918;BME280;4004;42.624;23.386;2023-05-29T07:41:52;94065.06;;;23.27;58.41
7918;BME280;4004;42.624;23.386;2023-05-29T07:44:19;94074.47;;;23.00;56.19
7918;BME280;4004;42.624;23.386;2023-05-29T07:46:47;94069.94;;;22.93;56.04
7918;BME280;4004;42.624;23.386;2023-05-29T07:49:14;94065.22;;;22.94;56.64
7918;BME280;4004;42.624;23.386;2023-05-29T07:51:41;94063.28;;;22.94;56.75
7918;BME280;4004;42.624;23.386;2023-05-29T07:54:08;94056.09;;;23.26;56.45
7918;BME280;4004;42.624;23.386;2023-05-29T07:56:34;94063.56;;;23.77;55.80
7918;BME280;4004;42.624;23.386;2023-05-29T07:59:01;94054.66;;;23.34;55.05
7918;BME280;4004;42.624;23.386;2023-05-29T08:01:28;94057.06;;;23.58;54.83
7918;BME280;4004;42.624;23.386;2023-05-29T08:03:56;94054.59;;;23.98;54.42
7918;BME280;4004;42.624;23.386;2023-05-29T08:06:23;94056.38;;;24.62;52.90
7918;BME280;4004;42.624;23.386;2023-05-29T08:08:50;94065.56;;;24.68;52.26
7918;BME280;4004;42.624;23.386;2023-05-29T08:11:17;94065.00;;;25.27;51.72
7918;BME280;4004;42.624;23.386;2023-05-29T08:13:44;94069.53;;;24.67;51.12
7918;BME280;4004;42.624;23.386;2023-05-29T08:16:11;94069.63;;;24.07;52.38
7918;BME280;4004;42.624;23.386;2023-05-29T08:18:39;94069.47;;;23.88;51.12
7918;BME280;4004;42.624;23.386;2023-05-29T08:21:07;94061.03;;;23.57;51.97
7918;BME280;4004;42.624;23.386;2023-05-29T08:23:35;94068.34;;;23.09;54.68
7918;BME280;4004;42.624;23.386;2023-05-29T08:26:02;94070.66;;;23.23;54.82
7918;BME280;4004;42.624;23.386;2023-05-29T08:28:29;94066.06;;;23.33;54.40
7918;BME280;4004;42.624;23.386;2023-05-29T08:30:55;94073.50;;;23.71;53.78
7918;BME280;4004;42.624;23.386;2023-05-29T08:33:22;94071.31;;;23.91;52.02
7918;BME280;4004;42.624;23.386;2023-05-29T08:35:49;94079.44;;;24.30;50.30
7918;BME280;4004;42.624;23.386;2023-05-29T08:38:17;94072.66;;;24.22;49.80
7918;BME280;4004;42.624;23.386;2023-05-29T08:40:46;94069.78;;;24.25;50.75
7918;BME280;4004;42.624;23.386;2023-05-29T08:43:16;94066.47;;;23.70;52.72
7918;BME280;4004;42.624;23.386;2023-05-29T08:45:44;94068.78;;;23.58;50.68
7918;BME280;4004;42.624;23.386;2023-05-29T08:48:11;94054.31;;;23.84;50.59
7918;BME280;4004;42.624;23.386;2023-05-29T08:50:42;94061.22;;;23.75;52.56
7918;BME280;4004;42.624;23.386;2023-05-29T08:53:09;94057.28;;;23.12;54.90
7918;BME280;4004;42.624;23.386;2023-05-29T08:55:38;94055.88;;;22.79;57.72
7918;BME280;4004;42.624;23.386;2023-05-29T08:58:05;94056.41;;;22.73;54.84
7918;BME280;4004;42.624;23.386;2023-05-29T09:00:32;94053.59;;;22.77;55.76
7918;BME280;4004;42.624;23.386;2023-05-29T09:02:59;94049.16;;;22.67;54.51
7918;BME280;4004;42.624;23.386;2023-05-29T09:05:26;94030.47;;;22.91;53.87
7918;BME280;4004;42.624;23.386;2023-05-29T09:07:53;94047.31;;;23.06;53.89
7918;BME280;4004;42.624;23.386;2023-05-29T09:10:21;94049.28;;;23.18;50.89
7918;BME280;4004;42.624;23.386;2023-05-29T09:12:49;94037.97;;;23.16;51.38
7918;BME280;4004;42.624;23.386;2023-05-29T09:15:17;94031.38;;;23.13;52.57
7918;BME280;4004;42.624;23.386;2023-05-29T09:17:49;94031.94;;;23.08;52.34
7918;BME280;4004;42.624;23.386;2023-05-29T09:20:17;94034.06;;;22.75;50.39
7918;BME280;4004;42.624;23.386;2023-05-29T09:22:52;94038.16;;;22.54;52.42
7918;BME280;4004;42.624;23.386;2023-05-29T09:25:20;94025.06;;;22.62;51.65
7918;BME280;4004;42.624;23.386;2023-05-29T09:27:51;94025.59;;;22.69;50.94
7918;BME280;4004;42.624;23.386;2023-05-29T09:30:31;94020.75;;;23.28;50.79
7918;BME280;4004;42.624;23.386;2023-05-29T09:32:59;94019.47;;;23.68;50.26
7918;BME280;4004;42.624;23.386;2023-05-29T09:35:32;94019.38;;;23.71;49.62
7918;BME280;4004;42.624;23.386;2023-05-29T09:37:59;94010.50;;;23.67;50.09
7918;BME280;4004;42.624;23.386;2023-05-29T09:40:26;94011.41;;;23.51;50.28
7918;BME280;4004;42.624;23.386;2023-05-29T09:42:54;94006.31;;;23.63;50.03
7918;BME280;4004;42.624;23.386;2023-05-29T09:45:21;94011.38;;;23.77;49.41
7918;BME280;4004;42.624;23.386;2023-05-29T09:47:50;94008.16;;;23.91;48.23
7918;BME280;4004;42.624;23.386;2023-05-29T09:50:19;94009.09;;;23.75;49.04
7918;BME280;4004;42.624;23.386;2023-05-29T09:52:46;94006.47;;;23.21;50.31
7918;BME280;4004;42.624;23.386;2023-05-29T09:55:17;94006.47;;;23.21;49.27
7918;BME280;4004;42.624;23.386;2023-05-29T09:57:47;94009.03;;;23.28;49.57
7918;BME280;4004;42.624;23.386;2023-05-29T10:00:17;93999.69;;;23.25;49.42
7918;BME280;4004;42.624;23.386;2023-05-29T10:02:45;94006.38;;;23.37;50.36
7918;BME280;4004;42.624;23.386;2023-05-29T10:05:12;93993.88;;;23.10;50.29
7918;BME280;4004;42.624;23.386;2023-05-29T10:07:43;94003.06;;;22.91;50.47
7918;BME280;4004;42.624;23.386;2023-05-29T10:10:12;94005.38;;;23.05;49.91
7918;BME280;4004;42.624;23.386;2023-05-29T10:12:42;94002.09;;;23.36;49.24
7918;BME280;4004;42.624;23.386;2023-05-29T10:15:12;93991.94;;;23.58;49.30
7918;BME280;4004;42.624;23.386;2023-05-29T10:17:46;93992.19;;;23.51;49.82
7918;BME280;4004;42.624;23.386;2023-05-29T10:20:16;93998.50;;;23.74;49.33
7918;BME280;4004;42.624;23.386;2023-05-29T10:22:47;93994.69;;;23.84;49.41
7918;BME280;4004;42.624;23.386;2023-05-29T10:25:18;93987.03;;;24.01;49.50
7918;BME280;4004;42.624;23.386;2023-05-29T10:27:45;93984.78;;;23.87;48.25
7918;BME280;4004;42.624;23.386;2023-05-29T10:30:15;93988.38;;;23.36;50.11
7918;BME280;4004;42.624;23.386;2023-05-29T10:32:59;93978.28;;;23.07;53.54
7918;BME280;4004;42.624;23.386;2023-05-29T10:35:33;93979.38;;;22.84;52.26
7918;BME280;4004;42.624;23.386;2023-05-29T10:38:10;93986.59;;;22.91;51.93
7918;BME280;4004;42.624;23.386;2023-05-29T10:40:38;93972.00;;;22.55;50.78
7918;BME280;4004;42.624;23.386;2023-05-29T10:43:05;93991.72;;;22.50;52.38
7918;BME280;4004;42.624;23.386;2023-05-29T10:45:50;93972.03;;;22.26;52.94
7918;BME280;4004;42.624;23.386;2023-05-29T10:48:38;93982.69;;;22.08;53.43
7918;BME280;4004;42.624;23.386;2023-05-29T10:51:06;93981.28;;;21.87;59.91
7918;BME280;4004;42.624;23.386;2023-05-29T10:53:34;93974.13;;;21.77;63.51
7918;BME280;4004;42.624;23.386;2023-05-29T10:56:08;93967.06;;;21.46;64.85
7918;BME280;4004;42.624;23.386;2023-05-29T10:58:37;93965.84;;;21.47;69.42
7918;BME280;4004;42.624;23.386;2023-05-29T11:01:08;93965.16;;;21.60;70.51
7918;BME280;4004;42.624;23.386;2023-05-29T11:03:35;93960.41;;;21.93;67.79
7918;BME280;4004;42.624;23.386;2023-05-29T11:06:04;93963.53;;;22.21;67.27
7918;BME280;4004;42.624;23.386;2023-05-29T11:08:33;93963.88;;;22.39;65.24
7918;BME280;4004;42.624;23.386;2023-05-29T11:11:02;93939.53;;;22.41;65.73
7918;BME280;4004;42.624;23.386;2023-05-29T11:13:33;93963.44;;;22.53;65.27
7918;BME280;4004;42.624;23.386;2023-05-29T11:16:11;93960.41;;;22.77;65.11
7918;BME280;4004;42.624;23.386;2023-05-29T11:18:40;93955.56;;;22.68;66.76
7918;BME280;4004;42.624;23.386;2023-05-29T11:21:18;93946.03;;;22.60;65.52
7918;BME280;4004;42.624;23.386;2023-05-29T11:23:50;93945.03;;;22.54;63.29
7918;BME280;4004;42.624;23.386;2023-05-29T11:26:17;93939.84;;;22.43;63.90
7918;BME280;4004;42.624;23.386;2023-05-29T11:28:44;93936.56;;;22.35;65.12
7918;BME280;4004;42.624;23.386;2023-05-29T11:31:12;93937.91;;;22.44;68.20
7918;BME280;4004;42.624;23.386;2023-05-29T11:33:39;93940.31;;;22.42;69.06
7918;BME280;4004;42.624;23.386;2023-05-29T11:36:10;93942.38;;;22.38;69.92
7918;BME280;4004;42.624;23.386;2023-05-29T11:38:36;93941.81;;;22.43;66.97
7918;BME280;4004;42.624;23.386;2023-05-29T11:41:03;93938.03;;;22.53;66.40
7918;BME280;4004;42.624;23.386;2023-05-29T11:43:31;93931.91;;;22.62;64.58
7918;BME280;4004;42.624;23.386;2023-05-29T11:45:58;93935.16;;;22.44;64.82
7918;BME280;4004;42.624;23.386;2023-05-29T11:48:25;93935.59;;;22.42;63.46
7918;BME280;4004;42.624;23.386;2023-05-29T11:50:52;93940.53;;;22.34;62.63
7918;BME280;4004;42.624;23.386;2023-05-29T11:53:20;93942.94;;;22.03;61.30
7918;BME280;4004;42.624;23.386;2023-05-29T11:55:47;93957.72;;;20.95;65.38
7918;BME280;4004;42.624;23.386;2023-05-29T11:58:15;93948.44;;;20.36;71.29
7918;BME280;4004;42.624;23.386;2023-05-29T12:00:42;93948.66;;;19.85;76.56
7918;BME280;4004;42.624;23.386;2023-05-29T12:03:11;93954.13;;;19.61;75.78
7918;BME280;4004;42.624;23.386;2023-05-29T12:05:48;93950.66;;;19.61;75.36
7918;BME280;4004;42.624;23.386;2023-05-29T12:08:22;93959.41;;;19.49;77.00
7918;BME280;4004;42.624;23.386;2023-05-29T12:10:51;93955.75;;;19.35;77.90
7918;BME280;4004;42.624;23.386;2023-05-29T12:13:18;93949.94;;;19.33;80.77
7918;BME280;4004;42.624;23.386;2023-05-29T12:15:46;93925.81;;;19.32;83.92
7918;BME280;4004;42.624;23.386;2023-05-29T12:18:14;93952.03;;;19.73;80.97
7918;BME280;4004;42.624;23.386;2023-05-29T12:20:41;93953.22;;;19.92;78.37
7918;BME280;4004;42.624;23.386;2023-05-29T12:23:08;93962.09;;;20.16;75.73
7918;BME280;4004;42.624;23.386;2023-05-29T12:25:36;93960.41;;;20.42;74.88
7918;BME280;4004;42.624;23.386;2023-05-29T12:28:04;93951.22;;;20.52;74.93
7918;BME280;4004;42.624;23.386;2023-05-29T12:30:31;93958.94;;;20.57;76.63
7918;BME280;4004;42.624;23.386;2023-05-29T12:33:02;93942.47;;;20.61;74.65
7918;BME280;4004;42.624;23.386;2023-05-29T12:35:31;93950.59;;;20.81;73.44
7918;BME280;4004;42.624;23.386;2023-05-29T12:38:00;93945.78;;;20.88;73.23
7918;BME280;4004;42.624;23.386;2023-05-29T12:40:28;93940.38;;;20.85;71.33
7918;BME280;4004;42.624;23.386;2023-05-29T12:42:57;93947.22;;;20.93;71.23
7918;BME280;4004;42.624;23.386;2023-05-29T12:45:26;93939.03;;;20.93;71.33
7918;BME280;4004;42.624;23.386;2023-05-29T12:47:54;93939.53;;;20.88;72.36
7918;BME280;4004;42.624;23.386;2023-05-29T12:50:23;93943.97;;;20.98;72.38
7918;BME280;4004;42.624;23.386;2023-05-29T12:52:57;93951.06;;;20.96;69.76
7918;BME280;4004;42.624;23.386;2023-05-29T12:55:25;93948.84;;;20.90;70.78
7918;BME280;4004;42.624;23.386;2023-05-29T12:57:51;93946.34;;;20.63;72.73
7918;BME280;4004;42.624;23.386;2023-05-29T13:00:20;93945.19;;;20.61;74.90
7918;BME280;4004;42.624;23.386;2023-05-29T13:02:47;93933.72;;;20.49;78.64
7918;BME280;4004;42.624;23.386;2023-05-29T13:05:15;93937.63;;;20.32;80.96
7918;BME280;4004;42.624;23.386;2023-05-29T13:07:44;93937.94;;;20.14;82.89
7918;BME280;4004;42.624;23.386;2023-05-29T13:10:11;93931.03;;;20.09;83.42
7918;BME280;4004;42.624;23.386;2023-05-29T13:12:38;93940.69;;;20.14;84.42
7918;BME280;4004;42.624;23.386;2023-05-29T13:15:06;93941.94;;;20.09;86.49